Time;durP1;ratioP1;P1;durP2;ratioP2;P2;SDS_P1;SDS_P2;PMS_P1;PMS_P2;Temp;Humidity;BMP_temperature;BMP_pressure;BME280_temperature;BME280_humidity;BME280_pressure;Samples;Min_cycle;Max_cycle;Signal;HPM_P1;HPM_P2
2022/08/03 00:00:38;;;;;;;9.27;1.73;;;19.60;99.90;;;;;;5050798;28;20045;-66
2022/08/03 00:03:04;;;;;;;8.88;1.75;;;19.40;99.90;;;;;;5051885;28;20037;-65
2022/08/03 00:05:32;;;;;;;11.80;2.33;;;19.50;99.90;;;;;;5049512;28;20048;-65
2022/08/03 00:07:58;;;;;;;12.10;2.03;;;20.20;99.90;;;;;;5051671;28;20067;-65
2022/08/03 00:10:23;;;;;;;5.00;1.58;;;19.10;99.90;;;;;;5066384;28;20053;-65
2022/08/03 00:12:49;;;;;;;7.72;1.23;;;19.20;99.90;;;;;;5051063;28;20040;-65
2022/08/03 00:15:15;;;;;;;7.40;1.50;;;19.30;99.90;;;;;;5056010;28;20029;-66
2022/08/03 00:17:41;;;;;;;6.63;2.08;;;19.20;99.90;;;;;;5055329;28;20817;-66
2022/08/03 00:20:07;;;;;;;10.20;1.30;;;19.40;99.90;;;;;;5061070;28;20037;-65
2022/08/03 00:22:34;;;;;;;10.23;1.67;;;19.20;99.90;;;;;;5048359;28;20072;-65
2022/08/03 00:25:00;;;;;;;9.23;1.75;;;19.30;99.90;;;;;;5059990;28;20082;-66
2022/08/03 00:27:25;;;;;;;7.53;1.83;;;19.00;99.90;;;;;;5052305;28;20037;-65
2022/08/03 00:29:51;;;;;;;5.50;1.33;;;19.40;99.90;;;;;;5049827;28;20084;-65
2022/08/03 00:32:17;;;;;;;7.20;2.20;;;19.20;99.90;;;;;;5051658;28;20063;-65
2022/08/03 00:34:42;;;;;;;6.68;1.63;;;19.40;99.90;;;;;;5038654;28;20065;-65
2022/08/03 00:37:08;;;;;;;3.50;1.10;;;19.20;99.90;;;;;;5051065;28;20067;-65
2022/08/03 00:39:33;;;;;;;3.85;1.55;;;19.10;99.90;;;;;;5050247;28;21725;-65
2022/08/03 00:42:03;;;;;;;5.50;1.50;;;19.30;99.90;;;;;;5056029;28;20032;-66
2022/08/03 00:44:28;;;;;;;5.45;1.48;;;19.50;99.90;;;;;;5050004;28;20053;-65
2022/08/03 00:46:54;;;;;;;6.68;1.50;;;19.40;99.90;;;;;;5052095;28;20525;-65
2022/08/03 00:49:20;;;;;;;8.82;1.52;;;19.20;99.90;;;;;;5050865;28;20049;-65
2022/08/03 00:51:46;;;;;;;3.10;1.00;;;19.30;99.90;;;;;;5052168;28;20044;-65
2022/08/03 00:54:12;;;;;;;8.35;1.33;;;19.20;99.90;;;;;;5050970;28;20040;-65
2022/08/03 00:56:39;;;;;;;6.38;1.02;;;19.00;99.90;;;;;;5052123;28;20419;-66
2022/08/03 00:59:06;;;;;;;10.10;1.10;;;19.50;99.90;;;;;;5050906;28;20466;-65
2022/08/03 01:01:31;;;;;;;5.38;1.33;;;19.10;99.90;;;;;;5050794;28;20041;-65
2022/08/03 01:03:57;;;;;;;5.80;1.42;;;19.10;99.90;;;;;;5050643;28;20372;-65
2022/08/03 01:06:34;;;;;;;7.10;1.45;;;18.90;99.90;;;;;;5060450;28;20090;-65
2022/08/03 01:09:06;;;;;;;3.75;1.23;;;19.00;99.90;;;;;;5053464;28;20126;-66
2022/08/03 01:11:46;;;;;;;7.03;1.40;;;19.00;99.90;;;;;;5051033;28;20140;-65
2022/08/03 01:14:19;;;;;;;7.35;1.50;;;19.00;99.90;;;;;;5049679;28;20040;-65
2022/08/03 01:17:11;;;;;;;5.45;1.00;;;19.00;99.90;;;;;;5051113;28;20127;-65
2022/08/03 01:19:43;;;;;;;5.57;2.05;;;19.30;99.90;;;;;;5044570;28;20151;-66
2022/08/03 01:22:30;;;;;;;7.32;1.27;;;19.00;99.90;;;;;;5047693;28;20049;-66
2022/08/03 01:25:08;;;;;;;7.32;0.82;;;18.90;99.90;;;;;;5040459;28;20414;-66
2022/08/03 01:28:07;;;;;;;9.95;1.85;;;20.20;99.90;;;;;;5042693;28;20048;-66
2022/08/03 01:30:36;;;;;;;9.25;1.90;;;18.90;99.90;;;;;;5052597;28;20059;-65
2022/08/03 01:33:05;;;;;;;8.23;2.17;;;18.80;99.90;;;;;;5053614;28;20036;-65
2022/08/03 01:35:35;;;;;;;5.63;1.65;;;18.90;99.90;;;;;;5055375;28;20037;-66
2022/08/03 01:38:04;;;;;;;11.07;1.63;;;18.80;99.90;;;;;;5054283;28;20048;-65
2022/08/03 01:40:34;;;;;;;8.18;1.40;;;18.90;99.90;;;;;;5052625;28;20037;-65
2022/08/03 01:43:02;;;;;;;9.82;2.38;;;19.00;99.90;;;;;;5055123;28;20127;-66
2022/08/03 01:45:29;;;;;;;6.80;1.60;;;19.00;99.90;;;;;;5055697;28;20061;-65
2022/08/03 01:47:55;;;;;;;8.60;1.50;;;18.90;99.90;;;;;;5066332;28;20377;-65
2022/08/03 01:50:25;;;;;;;5.43;1.30;;;19.20;99.90;;;;;;5055413;28;20068;-65
2022/08/03 01:52:53;;;;;;;9.13;1.73;;;18.90;99.90;;;;;;5047854;28;20040;-65
2022/08/03 01:55:20;;;;;;;8.95;2.53;;;19.00;99.90;;;;;;5055542;28;20048;-65
2022/08/03 01:57:47;;;;;;;8.68;1.65;;;19.00;99.90;;;;;;5054953;28;20507;-65
2022/08/03 02:00:13;;;;;;;6.70;1.60;;;19.20;99.90;;;;;;5057464;28;20053;-65
2022/08/03 02:02:41;;;;;;;8.13;2.15;;;19.00;99.90;;;;;;5054144;28;20033;-65
2022/08/03 02:05:09;;;;;;;7.55;1.80;;;19.20;99.90;;;;;;5067548;28;20413;-65
2022/08/03 02:07:38;;;;;;;7.18;1.77;;;19.00;99.90;;;;;;5054019;28;20045;-65
2022/08/03 02:10:06;;;;;;;9.80;2.10;;;18.90;99.90;;;;;;5051257;28;20123;-66
2022/08/03 02:12:34;;;;;;;6.50;2.00;;;19.10;99.90;;;;;;5059205;28;20494;-66
2022/08/03 02:15:00;;;;;;;7.35;1.42;;;18.80;99.90;;;;;;5075489;28;20048;-65
2022/08/03 02:17:27;;;;;;;7.63;1.65;;;18.70;99.90;;;;;;5058665;28;20033;-66
2022/08/03 02:19:53;;;;;;;9.75;2.03;;;18.90;99.90;;;;;;5053260;28;20037;-66
2022/08/03 02:22:20;;;;;;;11.18;1.80;;;18.70;99.90;;;;;;5058913;28;20068;-66
2022/08/03 02:24:45;;;;;;;10.70;2.53;;;18.70;99.90;;;;;;5067938;28;20052;-65
2022/08/03 02:27:23;;;;;;;7.95;1.73;;;18.60;99.90;;;;;;5044429;28;20396;-66
2022/08/03 02:29:53;;;;;;;10.95;2.42;;;18.70;99.90;;;;;;5047736;28;20091;-66
2022/08/03 02:32:28;;;;;;;7.75;1.60;;;18.80;99.90;;;;;;5053442;28;20033;-65
2022/08/03 02:34:56;;;;;;;8.45;2.30;;;18.60;99.90;;;;;;5054462;28;20056;-66
2022/08/03 02:37:27;;;;;;;8.70;2.00;;;18.60;99.90;;;;;;5047711;28;20044;-66
2022/08/03 02:40:00;;;;;;;5.30;1.63;;;18.60;99.90;;;;;;5053533;28;20368;-65
2022/08/03 02:42:27;;;;;;;8.23;2.13;;;18.70;99.90;;;;;;5049651;28;20037;-66
2022/08/03 02:44:55;;;;;;;7.95;1.90;;;18.60;99.90;;;;;;5043443;28;20041;-66
2022/08/03 02:47:22;;;;;;;8.85;2.55;;;18.60;99.90;;;;;;5052166;28;20041;-65
2022/08/03 02:49:50;;;;;;;11.98;2.30;;;18.60;99.90;;;;;;5053690;28;20052;-66
2022/08/03 02:52:17;;;;;;;9.63;2.15;;;18.80;99.90;;;;;;5052493;28;20037;-65
2022/08/03 02:54:45;;;;;;;7.88;3.10;;;18.70;99.90;;;;;;5045332;28;20045;-66
2022/08/03 02:57:11;;;;;;;8.15;2.00;;;18.50;99.90;;;;;;5046887;28;20117;-65
2022/08/03 02:59:38;;;;;;;5.43;2.28;;;18.60;99.90;;;;;;5044924;28;20057;-65
2022/08/03 03:02:05;;;;;;;8.02;1.98;;;18.80;99.90;;;;;;5050034;28;20048;-66
2022/08/03 03:04:31;;;;;;;10.02;2.00;;;18.50;99.90;;;;;;5052943;28;20095;-66
2022/08/03 03:06:57;;;;;;;9.13;2.10;;;18.40;99.90;;;;;;5049614;28;20045;-65
2022/08/03 03:09:23;;;;;;;6.43;2.50;;;18.50;99.90;;;;;;5033088;28;20087;-66
2022/08/03 03:11:50;;;;;;;10.98;2.85;;;18.30;99.90;;;;;;5047636;28;20155;-65
2022/08/03 03:14:17;;;;;;;5.10;2.03;;;18.50;99.90;;;;;;5052742;28;20048;-65
2022/08/03 03:16:44;;;;;;;8.48;2.67;;;18.50;99.90;;;;;;5046993;28;20041;-66
2022/08/03 03:19:11;;;;;;;6.88;2.13;;;18.60;99.90;;;;;;5049279;28;20498;-65
2022/08/03 03:21:38;;;;;;;6.85;2.30;;;18.40;99.90;;;;;;5038894;28;20041;-65
2022/08/03 03:24:05;;;;;;;11.27;2.45;;;18.30;99.90;;;;;;5049926;28;20110;-65
2022/08/03 03:26:32;;;;;;;9.43;2.05;;;18.40;99.90;;;;;;5052805;28;20112;-65
2022/08/03 03:28:57;;;;;;;6.93;2.17;;;18.30;99.90;;;;;;5046668;28;20029;-65
2022/08/03 03:31:23;;;;;;;6.90;2.17;;;18.20;99.90;;;;;;5048979;28;20124;-65
2022/08/03 03:33:49;;;;;;;9.18;3.17;;;18.50;99.90;;;;;;5040415;28;20056;-66
2022/08/03 03:36:15;;;;;;;7.25;2.58;;;18.40;99.90;;;;;;5035277;28;20116;-65
2022/08/03 03:38:40;;;;;;;8.30;2.13;;;18.60;99.90;;;;;;5043676;28;20403;-65
2022/08/03 03:41:06;;;;;;;7.28;2.47;;;18.50;99.90;;;;;;5038318;28;20074;-65
2022/08/03 03:43:32;;;;;;;7.00;2.95;;;18.40;99.90;;;;;;5051037;28;20120;-66
2022/08/03 03:45:59;;;;;;;8.32;2.45;;;18.40;99.90;;;;;;5052244;28;20139;-65
2022/08/03 03:48:25;;;;;;;7.80;2.38;;;18.30;99.90;;;;;;5053624;28;20037;-65
2022/08/03 03:50:51;;;;;;;7.35;2.00;;;18.50;99.90;;;;;;5046175;28;20132;-66
2022/08/03 03:53:16;;;;;;;7.85;1.95;;;18.40;99.90;;;;;;5047823;28;20402;-66
2022/08/03 03:55:42;;;;;;;6.75;2.65;;;18.50;99.90;;;;;;5042019;28;20048;-65
2022/08/03 03:58:07;;;;;;;13.00;2.85;;;18.50;99.90;;;;;;5037777;28;20068;-65
2022/08/03 04:00:33;;;;;;;8.35;2.17;;;18.60;99.90;;;;;;5033123;28;20052;-66
2022/08/03 04:02:59;;;;;;;9.13;2.83;;;18.30;99.90;;;;;;5045766;28;20037;-66
2022/08/03 04:11:24;;;;;;;5.22;2.15;;;18.30;99.90;;;;;;5018469;28;20045;-66
2022/08/03 04:14:06;;;;;;;8.45;2.22;;;18.30;99.90;;;;;;5047471;28;20042;-65
2022/08/03 04:16:35;;;;;;;9.77;2.35;;;18.30;99.90;;;;;;5040585;28;20065;-66
2022/08/03 04:19:06;;;;;;;8.10;2.03;;;18.20;99.90;;;;;;5038764;28;20136;-65
2022/08/03 04:21:35;;;;;;;11.38;2.40;;;18.30;99.90;;;;;;5051688;28;20078;-65
2022/08/03 04:24:06;;;;;;;6.43;2.03;;;18.30;99.90;;;;;;5049502;28;20479;-65
2022/08/03 04:26:35;;;;;;;6.68;2.38;;;18.30;99.90;;;;;;5051439;28;20049;-65
2022/08/03 04:29:02;;;;;;;6.68;2.15;;;18.30;99.90;;;;;;5049296;28;20068;-65
2022/08/03 04:31:29;;;;;;;6.55;2.20;;;18.30;99.90;;;;;;5047474;28;20091;-65
2022/08/03 04:33:55;;;;;;;10.23;2.40;;;18.30;99.90;;;;;;5052481;28;20044;-65
2022/08/03 04:36:23;;;;;;;8.75;2.38;;;18.20;99.90;;;;;;5051151;28;20087;-65
2022/08/03 04:38:59;;;;;;;9.38;2.10;;;18.40;99.90;;;;;;5042638;28;20029;-66
2022/08/03 04:41:26;;;;;;;6.25;2.10;;;18.40;99.90;;;;;;5048558;28;20044;-65
2022/08/03 04:43:54;;;;;;;9.10;2.60;;;18.40;99.90;;;;;;5052253;28;20043;-66
2022/08/03 04:46:22;;;;;;;8.93;2.85;;;18.40;99.90;;;;;;5049723;28;20120;-65
2022/08/03 04:48:48;;;;;;;6.95;2.60;;;18.40;99.90;;;;;;5051510;28;20560;-65
2022/08/03 04:51:14;;;;;;;7.93;2.00;;;18.70;99.90;;;;;;5049812;28;20067;-65
2022/08/03 04:53:41;;;;;;;10.75;2.75;;;18.50;99.90;;;;;;5052530;28;20044;-65
2022/08/03 04:56:07;;;;;;;14.73;3.00;;;18.70;99.90;;;;;;5051385;28;20488;-65
2022/08/03 04:58:32;;;;;;;11.13;2.30;;;18.90;99.90;;;;;;5051769;28;20060;-65
2022/08/03 05:00:58;;;;;;;8.85;2.53;;;18.80;99.90;;;;;;5049133;28;20048;-65
2022/08/03 05:03:24;;;;;;;9.23;2.20;;;18.70;99.90;;;;;;5052093;28;20068;-65
2022/08/03 05:05:53;;;;;;;8.60;2.38;;;18.80;99.90;;;;;;5050837;28;20048;-65
2022/08/03 05:08:19;;;;;;;8.15;2.33;;;19.00;99.90;;;;;;5049107;28;20490;-65
2022/08/03 05:10:45;;;;;;;5.22;2.45;;;19.00;99.90;;;;;;5052080;28;20060;-65
2022/08/03 05:13:12;;;;;;;9.77;2.72;;;19.10;99.90;;;;;;5047802;28;20052;-67
2022/08/03 05:15:38;;;;;;;9.35;2.85;;;18.90;99.90;;;;;;5052026;28;20059;-66
2022/08/03 05:18:03;;;;;;;8.18;3.42;;;19.20;99.90;;;;;;5049394;28;20041;-66
2022/08/03 05:20:29;;;;;;;11.43;3.10;;;19.20;99.90;;;;;;5052050;28;20029;-67
2022/08/03 05:22:56;;;;;;;7.05;2.70;;;19.20;99.90;;;;;;5050522;28;20461;-66
2022/08/03 05:25:21;;;;;;;11.48;2.83;;;19.50;99.90;;;;;;5051246;28;20410;-66
2022/08/03 05:27:47;;;;;;;10.63;2.50;;;19.50;99.90;;;;;;5049559;28;20041;-65
2022/08/03 05:30:13;;;;;;;11.10;2.75;;;19.30;99.90;;;;;;5042810;28;20052;-66
2022/08/03 05:32:38;;;;;;;21.88;4.50;;;19.40;99.90;;;;;;5049798;28;20048;-67
2022/08/03 05:35:04;;;;;;;8.98;2.58;;;19.40;99.90;;;;;;5052149;28;20053;-67
2022/08/03 05:37:30;;;;;;;9.77;3.15;;;19.70;99.90;;;;;;5049217;28;20047;-67
2022/08/03 05:39:55;;;;;;;10.45;3.35;;;19.60;99.90;;;;;;5031349;28;20117;-67
2022/08/03 05:42:21;;;;;;;5.47;2.13;;;19.70;99.90;;;;;;5042864;28;20041;-65
2022/08/03 05:44:46;;;;;;;11.35;2.50;;;20.00;99.90;;;;;;5051811;28;20048;-66
2022/08/03 05:47:12;;;;;;;10.82;2.00;;;20.30;99.90;;;;;;5050848;28;20045;-66
2022/08/03 05:49:37;;;;;;;10.77;3.00;;;20.80;99.90;;;;;;5051798;28;20041;-67
2022/08/03 05:52:03;;;;;;;8.07;2.72;;;21.20;99.90;;;;;;5049176;28;20044;-66
2022/08/03 05:54:29;;;;;;;10.55;1.92;;;21.60;99.90;;;;;;5051898;28;20041;-66
2022/08/03 05:56:54;;;;;;;6.18;2.50;;;21.70;99.90;;;;;;5050562;28;20459;-66
2022/08/03 05:59:20;;;;;;;7.85;2.00;;;22.30;99.90;;;;;;5051076;28;20045;-66
2022/08/03 06:01:46;;;;;;;11.57;2.20;;;23.10;99.90;;;;;;5048700;28;20124;-67
2022/08/03 06:04:12;;;;;;;8.05;1.80;;;22.80;99.90;;;;;;5050301;28;20045;-67
2022/08/03 06:06:37;;;;;;;8.57;1.83;;;23.40;99.90;;;;;;5048540;28;20044;-67
2022/08/03 06:09:03;;;;;;;12.18;2.40;;;23.50;99.90;;;;;;5050167;28;20605;-67
2022/08/03 06:11:29;;;;;;;6.90;2.03;;;24.10;99.90;;;;;;5032591;28;20040;-66
2022/08/03 06:13:54;;;;;;;10.13;3.38;;;24.60;99.90;;;;;;5047622;28;20083;-66
2022/08/03 06:16:20;;;;;;;9.07;2.33;;;23.70;99.90;;;;;;5048056;28;20510;-66
2022/08/03 06:18:45;;;;;;;10.68;2.63;;;23.50;99.90;;;;;;5047367;28;20048;-66
2022/08/03 06:21:11;;;;;;;10.55;2.42;;;23.70;99.90;;;;;;5046244;28;20037;-65
2022/08/03 06:23:36;;;;;;;10.45;2.22;;;23.70;99.90;;;;;;5051504;28;20043;-65
2022/08/03 06:26:02;;;;;;;10.07;2.25;;;25.80;99.90;;;;;;5052196;28;20040;-66
2022/08/03 06:28:28;;;;;;;13.48;2.30;;;24.80;99.90;;;;;;5044647;28;20045;-65
2022/08/03 06:30:53;;;;;;;13.57;1.98;;;25.00;99.90;;;;;;5053359;28;20061;-66
2022/08/03 06:33:19;;;;;;;8.10;1.67;;;25.00;99.90;;;;;;5041115;28;20033;-65
2022/08/03 06:35:44;;;;;;;8.45;1.85;;;25.60;99.90;;;;;;5046335;28;20424;-65
2022/08/03 06:38:10;;;;;;;9.18;2.25;;;25.30;99.90;;;;;;5043620;28;20106;-65
2022/08/03 06:40:38;;;;;;;10.50;1.83;;;25.30;99.90;;;;;;5051538;28;20040;-65
2022/08/03 06:43:05;;;;;;;11.98;2.78;;;25.30;99.90;;;;;;5038687;28;20041;-68
2022/08/03 06:45:32;;;;;;;13.35;2.85;;;25.60;99.90;;;;;;5042154;28;20055;-65
2022/08/03 06:48:09;;;;;;;10.50;1.95;;;26.00;99.90;;;;;;5051226;28;20041;-65
2022/08/03 06:50:36;;;;;;;8.93;2.00;;;25.50;99.90;;;;;;5042632;28;20037;-66
2022/08/03 06:53:03;;;;;;;8.93;1.75;;;25.90;99.90;;;;;;5049094;28;20033;-66
2022/08/03 06:55:28;;;;;;;12.85;2.47;;;25.90;99.90;;;;;;5052356;28;20045;-66
2022/08/03 06:57:54;;;;;;;12.23;2.00;;;25.90;99.90;;;;;;5051696;28;20060;-66
2022/08/03 07:00:20;;;;;;;6.70;2.28;;;25.90;99.90;;;;;;5053154;28;20055;-67
2022/08/03 07:02:46;;;;;;;11.43;2.08;;;25.30;99.90;;;;;;5053240;28;20037;-66
2022/08/03 07:05:12;;;;;;;11.98;2.83;;;24.90;99.90;;;;;;5053119;28;20037;-66
2022/08/03 07:07:38;;;;;;;14.52;2.22;;;24.40;99.90;;;;;;5051990;28;20043;-66
2022/08/03 07:10:06;;;;;;;16.77;3.33;;;24.10;99.90;;;;;;5052325;28;20115;-66
2022/08/03 07:12:32;;;;;;;8.05;2.40;;;23.70;99.90;;;;;;5040279;28;20054;-66
2022/08/03 07:14:59;;;;;;;9.23;2.00;;;23.30;99.90;;;;;;5049393;28;20037;-66
2022/08/03 07:17:25;;;;;;;11.07;3.10;;;23.00;99.90;;;;;;5053303;28;20386;-66
2022/08/03 07:19:50;;;;;;;17.13;2.90;;;22.90;99.90;;;;;;5052506;28;20123;-66
2022/08/03 07:22:16;;;;;;;13.43;2.72;;;22.70;99.90;;;;;;5052453;28;20037;-66
2022/08/03 07:24:41;;;;;;;12.55;2.65;;;22.70;99.90;;;;;;5053595;28;20036;-66
2022/08/03 07:27:08;;;;;;;12.05;3.15;;;22.50;99.90;;;;;;5053376;28;20053;-66
2022/08/03 07:29:34;;;;;;;12.55;3.15;;;22.40;99.90;;;;;;5053948;28;20040;-66
2022/08/03 07:32:00;;;;;;;12.57;2.88;;;22.30;99.90;;;;;;5053954;28;20045;-66
2022/08/03 07:34:26;;;;;;;13.63;2.90;;;22.20;99.90;;;;;;5053766;28;20390;-65
2022/08/03 07:36:52;;;;;;;8.20;3.35;;;22.10;99.90;;;;;;5052246;28;20037;-66
2022/08/03 07:39:17;;;;;;;13.18;3.03;;;22.30;99.90;;;;;;5053346;28;20048;-66
2022/08/03 07:41:43;;;;;;;10.35;3.13;;;22.40;99.90;;;;;;5033832;28;20066;-66
2022/08/03 07:44:08;;;;;;;11.23;3.33;;;22.30;99.90;;;;;;5032406;28;20128;-66
2022/08/03 07:46:34;;;;;;;9.70;3.22;;;22.30;99.90;;;;;;5043733;28;20080;-67
2022/08/03 07:49:00;;;;;;;15.90;3.28;;;22.20;99.90;;;;;;5043816;28;20037;-67
2022/08/03 07:51:26;;;;;;;13.88;3.60;;;23.20;99.90;;;;;;5049508;28;20073;-67
2022/08/03 07:53:51;;;;;;;11.30;3.80;;;22.20;99.90;;;;;;5053105;28;20071;-67
2022/08/03 07:56:18;;;;;;;11.10;3.78;;;21.90;99.90;;;;;;5053091;28;20660;-66
2022/08/03 07:58:44;;;;;;;14.45;3.58;;;22.30;99.90;;;;;;5039410;28;20060;-67
2022/08/03 08:01:09;;;;;;;17.52;4.05;;;22.30;99.90;;;;;;5052232;28;20080;-67
2022/08/03 08:03:35;;;;;;;11.77;3.60;;;22.50;99.90;;;;;;5051921;28;20162;-67
2022/08/03 08:06:01;;;;;;;11.63;3.35;;;22.60;99.90;;;;;;5053218;28;20037;-66
2022/08/03 08:08:26;;;;;;;12.10;4.40;;;22.50;99.90;;;;;;5052881;28;20410;-66
2022/08/03 08:10:52;;;;;;;12.98;3.33;;;22.50;99.90;;;;;;5051518;28;20045;-66
2022/08/03 08:13:17;;;;;;;13.95;4.13;;;22.60;99.90;;;;;;5053028;28;20043;-67
2022/08/03 08:15:43;;;;;;;15.93;4.28;;;22.60;99.90;;;;;;5046435;28;20079;-67
2022/08/03 08:18:08;;;;;;;15.50;3.65;;;23.70;99.90;;;;;;5039294;28;20049;-67
2022/08/03 08:20:36;;;;;;;12.13;4.18;;;22.70;99.90;;;;;;5044109;28;20471;-67
2022/08/03 08:23:04;;;;;;;11.52;4.13;;;22.20;99.90;;;;;;5053579;28;20116;-67
2022/08/03 08:25:30;;;;;;;14.73;3.55;;;22.30;99.90;;;;;;5054575;28;20033;-67
2022/08/03 08:27:56;;;;;;;9.48;3.78;;;22.40;99.90;;;;;;5053023;28;20033;-67
2022/08/03 08:30:22;;;;;;;12.20;2.92;;;22.40;99.90;;;;;;5065603;28;20501;-67
2022/08/03 08:32:49;;;;;;;10.35;3.58;;;22.70;99.90;;;;;;5041463;28;20057;-67
2022/08/03 08:35:16;;;;;;;11.13;3.20;;;22.80;99.90;;;;;;5052835;28;20041;-67
2022/08/03 08:37:42;;;;;;;15.98;4.18;;;23.00;99.90;;;;;;5048200;28;20050;-66
2022/08/03 08:40:08;;;;;;;14.38;3.28;;;23.10;99.90;;;;;;5045207;28;20483;-67
2022/08/03 08:42:37;;;;;;;9.90;3.38;;;23.00;99.90;;;;;;5038738;28;20103;-67
2022/08/03 08:45:05;;;;;;;8.20;3.80;;;23.10;99.90;;;;;;5052643;28;20040;-66
2022/08/03 08:47:33;;;;;;;14.52;3.42;;;23.30;99.90;;;;;;5034964;28;20131;-66
2022/08/03 08:49:59;;;;;;;8.23;3.38;;;23.10;99.90;;;;;;5043212;28;20384;-66
2022/08/03 08:52:28;;;;;;;11.45;3.83;;;23.30;99.90;;;;;;5034500;28;20511;-65
2022/08/03 08:55:05;;;;;;;11.02;3.58;;;23.20;99.90;;;;;;5042504;28;20123;-66
2022/08/03 08:57:36;;;;;;;11.00;3.03;;;23.30;99.90;;;;;;5040716;28;20045;-67
2022/08/03 09:00:12;;;;;;;12.15;3.78;;;23.40;99.90;;;;;;5039308;28;20068;-66
2022/08/03 09:02:41;;;;;;;16.55;4.38;;;23.60;99.90;;;;;;5034298;28;20495;-66
2022/08/03 09:05:12;;;;;;;11.73;3.70;;;23.60;99.90;;;;;;5036032;28;20443;-65
2022/08/03 09:07:42;;;;;;;14.07;3.22;;;23.80;99.90;;;;;;5052034;28;20033;-66
2022/08/03 09:10:10;;;;;;;13.43;3.60;;;23.60;99.90;;;;;;5042532;28;20048;-66
2022/08/03 09:12:42;;;;;;;16.63;4.22;;;25.10;99.90;;;;;;5040678;28;20055;-67
2022/08/03 09:15:25;;;;;;;14.13;4.53;;;23.70;99.90;;;;;;5037576;28;20041;-67
2022/08/03 09:17:54;;;;;;;18.85;4.40;;;23.70;99.90;;;;;;5041537;28;20045;-67
2022/08/03 09:20:21;;;;;;;9.68;3.47;;;23.40;99.90;;;;;;5033998;28;20063;-66
2022/08/03 09:22:50;;;;;;;11.80;3.75;;;23.80;99.90;;;;;;5042991;28;20495;-67
2022/08/03 09:25:16;;;;;;;11.80;4.10;;;23.30;99.90;;;;;;5033131;28;20084;-67
2022/08/03 09:27:42;;;;;;;14.95;4.50;;;23.70;99.90;;;;;;5035109;28;20111;-66
2022/08/03 09:30:16;;;;;;;13.15;3.70;;;23.80;99.90;;;;;;5046605;28;20041;-68
2022/08/03 09:32:44;;;;;;;11.13;4.38;;;23.70;99.90;;;;;;5038737;28;20048;-66
2022/08/03 09:35:11;;;;;;;12.93;3.58;;;23.80;99.90;;;;;;5043997;28;20056;-66
2022/08/03 09:37:37;;;;;;;13.10;3.92;;;24.00;99.90;;;;;;5046624;28;20087;-66
2022/08/03 09:40:03;;;;;;;16.75;4.57;;;24.40;99.90;;;;;;5044516;28;20499;-66
2022/08/03 09:42:29;;;;;;;12.63;4.68;;;24.50;99.90;;;;;;5046875;28;20033;-66
2022/08/03 09:44:54;;;;;;;16.70;4.63;;;24.50;99.90;;;;;;5043748;28;20446;-65
2022/08/03 09:47:31;;;;;;;10.60;3.92;;;24.70;99.90;;;;;;5047821;28;20434;-66
2022/08/03 09:50:05;;;;;;;15.32;2.95;;;24.70;99.90;;;;;;5048388;28;20049;-66
2022/08/03 09:52:39;;;;;;;14.57;5.05;;;24.80;99.90;;;;;;5041911;28;20033;-66
2022/08/03 09:55:09;;;;;;;;;;;25.00;99.90;;;;;;5048138;28;20076;-66
2022/08/03 09:57:35;;;;;;;20.35;3.95;;;24.90;99.90;;;;;;5048647;28;20020;-68
2022/08/03 10:00:12;;;;;;;17.25;4.45;;;25.00;99.90;;;;;;5045380;28;20044;-66
2022/08/03 10:02:39;;;;;;;14.93;5.97;;;25.10;99.90;;;;;;5049687;28;20120;-66
2022/08/03 10:05:06;;;;;;;13.50;3.10;;;25.10;99.90;;;;;;5051052;28;20103;-67
2022/08/03 10:07:49;;;;;;;19.67;5.55;;;25.20;99.90;;;;;;5052056;28;20047;-66
2022/08/03 10:10:16;;;;;;;17.13;4.53;;;25.30;99.90;;;;;;5047189;28;20063;-66
2022/08/03 10:12:43;;;;;;;15.75;4.18;;;26.60;99.90;;;;;;5053907;28;20539;-66
2022/08/03 10:15:09;;;;;;;11.38;4.45;;;25.30;99.90;;;;;;5053540;28;20129;-67
2022/08/03 10:17:36;;;;;;;18.85;4.25;;;25.40;99.90;;;;;;5053447;28;20029;-67
2022/08/03 10:20:05;;;;;;;19.92;4.70;;;25.40;99.90;;;;;;5054027;28;20116;-66
2022/08/03 10:22:35;;;;;;;14.55;4.82;;;25.50;99.90;;;;;;5053968;28;20048;-66
2022/08/03 10:25:08;;;;;;;12.98;4.47;;;25.30;99.90;;;;;;5053585;28;20059;-67
2022/08/03 10:27:37;;;;;;;21.30;4.82;;;25.60;99.90;;;;;;5049150;28;20049;-67
2022/08/03 10:30:07;;;;;;;14.40;4.40;;;26.80;99.90;;;;;;5046324;28;20840;-66
2022/08/03 10:32:51;;;;;;;15.38;4.70;;;25.70;99.90;;;;;;5050351;28;20548;-67
2022/08/03 10:35:22;;;;;;;16.52;4.55;;;25.70;99.90;;;;;;5051895;28;20095;-67
2022/08/03 10:38:02;;;;;;;15.02;3.83;;;25.50;99.90;;;;;;5049002;28;20116;-66
2022/08/03 10:40:30;;;;;;;15.55;3.40;;;25.50;99.90;;;;;;5039746;28;20495;-65
2022/08/03 10:43:06;;;;;;;12.85;4.20;;;25.60;99.90;;;;;;5051221;28;20036;-65
2022/08/03 10:45:34;;;;;;;17.38;3.97;;;26.70;99.90;;;;;;5038043;28;20571;-66
2022/08/03 10:48:01;;;;;;;14.57;3.75;;;25.50;99.90;;;;;;5035541;28;20511;-65
2022/08/03 10:50:27;;;;;;;11.50;2.80;;;25.50;99.90;;;;;;5034690;28;20414;-66
2022/08/03 10:53:13;;;;;;;16.88;3.55;;;25.60;99.90;;;;;;5039060;28;20087;-65
2022/08/03 10:58:37;;;;;;;10.82;3.55;;;25.70;99.90;;;;;;5042927;28;20057;-65
2022/08/03 11:01:11;;;;;;;12.68;3.83;;;25.80;99.90;;;;;;5037328;28;20040;-67
2022/08/03 11:03:51;;;;;;;16.58;3.45;;;26.50;99.90;;;;;;5040655;28;20040;-66
2022/08/03 11:06:23;;;;;;;13.10;4.35;;;25.80;99.90;;;;;;5037284;28;20045;-65
2022/08/03 11:09:09;;;;;;;22.17;3.88;;;26.10;99.90;;;;;;5051011;28;20487;-68
2022/08/03 11:11:40;;;;;;;19.73;4.15;;;25.70;99.90;;;;;;5045429;28;20625;-66
2022/08/03 11:14:12;;;;;;;18.80;4.20;;;25.70;99.90;;;;;;5048164;28;20087;-66
2022/08/03 11:16:59;;;;;;;11.90;3.08;;;25.50;99.90;;;;;;5052454;28;20032;-66
2022/08/03 11:19:45;;;;;;;14.68;4.03;;;25.70;99.90;;;;;;5036007;28;20045;-66
2022/08/03 11:22:12;;;;;;;12.77;4.10;;;25.80;99.90;;;;;;5051554;28;20376;-65
2022/08/03 11:24:50;;;;;;;18.70;4.95;;;26.70;99.90;;;;;;5050701;28;20120;-66
2022/08/03 11:27:24;;;;;;;18.38;4.05;;;25.90;99.90;;;;;;5048876;28;20056;-66
2022/08/03 11:30:08;;;;;;;19.02;3.78;;;26.10;99.90;;;;;;5052397;28;20041;-65
2022/08/03 11:32:36;;;;;;;11.90;2.90;;;26.00;99.90;;;;;;5050633;28;20460;-66
2022/08/03 11:35:22;;;;;;;21.25;4.60;;;26.20;99.90;;;;;;5048705;28;20041;-65
2022/08/03 11:37:57;;;;;;;20.73;5.47;;;26.80;99.90;;;;;;5050810;28;20033;-66
2022/08/03 11:40:39;;;;;;;14.00;3.88;;;26.10;99.90;;;;;;5050775;28;20043;-65
2022/08/03 11:43:26;;;;;;;18.95;4.85;;;26.50;99.90;;;;;;5050666;28;20049;-65
2022/08/03 11:46:16;;;;;;;14.50;4.55;;;26.60;99.90;;;;;;5043576;28;20450;-66
2022/08/03 11:48:47;;;;;;;11.55;4.03;;;26.20;99.90;;;;;;5041119;28;20120;-65
2022/08/03 11:51:32;;;;;;;17.27;3.58;;;26.10;99.90;;;;;;5050425;28;20068;-66
2022/08/03 11:54:03;;;;;;;18.55;4.20;;;26.20;99.90;;;;;;5051992;28;20139;-66
2022/08/03 11:56:44;;;;;;;19.13;4.65;;;26.10;99.90;;;;;;5051711;28;20041;-66
2022/08/03 11:59:09;;;;;;;19.48;4.25;;;26.10;99.90;;;;;;5049775;28;20064;-67
2022/08/03 12:01:36;;;;;;;14.60;4.15;;;26.20;99.90;;;;;;5050424;28;20049;-66
2022/08/03 12:04:03;;;;;;;18.58;4.25;;;27.50;99.90;;;;;;5052136;28;20487;-66
2022/08/03 12:06:29;;;;;;;21.42;5.22;;;26.30;99.90;;;;;;5051454;28;20025;-66
2022/08/03 12:08:54;;;;;;;15.32;4.88;;;26.40;99.90;;;;;;5048038;28;20524;-66
2022/08/03 12:11:20;;;;;;;17.02;5.20;;;26.20;99.90;;;;;;5050469;28;20045;-66
2022/08/03 12:13:48;;;;;;;15.57;4.78;;;26.30;99.90;;;;;;5050646;28;20041;-66
2022/08/03 12:16:32;;;;;;;20.92;4.75;;;26.30;99.90;;;;;;5051473;28;20032;-66
2022/08/03 12:19:02;;;;;;;17.10;4.35;;;27.80;99.90;;;;;;5049894;28;20438;-66
2022/08/03 12:21:29;;;;;;;18.05;4.95;;;26.40;99.90;;;;;;5049906;28;20167;-66
2022/08/03 12:23:59;;;;;;;20.63;5.07;;;28.30;99.90;;;;;;5051373;28;20128;-66
2022/08/03 12:26:26;;;;;;;20.05;6.53;;;26.50;99.90;;;;;;5051275;28;20032;-66
2022/08/03 12:28:51;;;;;;;14.57;5.88;;;26.60;99.90;;;;;;5051000;28;20047;-65
2022/08/03 12:31:17;;;;;;;15.23;4.50;;;26.80;99.90;;;;;;5050762;28;20029;-66
2022/08/03 12:34:03;;;;;;;15.52;3.63;;;26.60;99.90;;;;;;5050033;28;20126;-66
2022/08/03 12:36:34;;;;;;;21.90;5.20;;;26.90;99.90;;;;;;5048185;28;20037;-66
2022/08/03 12:39:05;;;;;;;16.02;3.28;;;27.00;99.90;;;;;;5050273;28;20044;-67
2022/08/03 12:41:39;;;;;;;17.40;3.88;;;26.90;99.90;;;;;;5040424;28;20394;-67
2022/08/03 12:44:06;;;;;;;17.65;4.07;;;28.50;99.90;;;;;;5046491;28;20073;-66
2022/08/03 12:46:38;;;;;;;11.10;3.20;;;28.20;99.90;;;;;;5044511;28;20037;-66
2022/08/03 12:49:13;;;;;;;16.38;4.30;;;27.20;99.90;;;;;;5050632;28;20082;-65
2022/08/03 12:51:42;;;;;;;11.70;3.47;;;27.20;99.90;;;;;;5032088;28;20044;-65
2022/08/03 12:54:14;;;;;;;12.98;3.90;;;27.00;99.90;;;;;;5049565;28;20471;-66
2022/08/03 12:57:06;;;;;;;13.02;2.80;;;26.90;99.90;;;;;;5049849;28;20495;-65